首页
METAR-TAF:

METAR-TAF

机场 :

奈洛比, 肯尼亚

纬度: 01-19S, 经度: 036-49E, 海拔: 1683米

当前天气观测

该预报发布于4小时和41分钟前的22:00 UTC
静风
温度 17°C
湿度 68%
气压 1025 hPa
能见度10公里或以上
1500米以下无云,无积雨云

METAR: HKNW 132200Z 00000KT CAVOK 17/11 Q1025

时间: 05:41 (02:41 UTC)

预报

该预报发布于3小时和41分钟前的23:00 UTC
预报有效从14日的 00点(UTC)到 14日的 24点(UTC)
风速2节,风向多变
能见度10公里或以上
散云层高于2000英尺
短暂存在
从 14日的 01点(UTC)到 14日的 05点(UTC)
多云层高于1600英尺
成为
从 14日的 08点(UTC)到 14日的 11点(UTC)
风速10节,风向南转南东
多云层高于2400英尺
成为
从 14日的 20点(UTC)到 14日的 23点(UTC)
风速3节,风向多变
能见度10公里或以上
1500米以下无云,无积雨云

TAF: HKNW 132300Z 1400/1424 VRB02KT 9999 SCT020 TEMPO 1401/1405 BKN016 BECMG 1408/1411 15010KT BKN024 BECMG 1420/1423 VRB03KT CAVOK

超过4000个机场的气象观测和天气预报(METAR&TAF报告)。

可查询的气象台以黄色和红色小点在地图上表示。

将鼠标移到小点上方,可查看气象台名称。

然后点击查看天气观测和预报。

如需切换地图:点击带黑十字的绿色按钮放大地图;点击带横线的绿色按钮缩小地图;或者点击绿色箭头查看邻近地区的地图。


METAR-TAF: